sensor_id;sensor_type;location;lat;lon;timestamp;P1;durP1;ratioP1;P2;durP2;ratioP2
68940;SDS011;55982;51.476;7.552;2023-04-24T00:00:14;10.15;;;2.80;;
68940;SDS011;55982;51.476;7.552;2023-04-24T00:02:40;8.02;;;5.05;;
68940;SDS011;55982;51.476;7.552;2023-04-24T00:05:09;6.72;;;4.18;;
68940;SDS011;55982;51.476;7.552;2023-04-24T00:07:35;5.05;;;3.28;;
68940;SDS011;55982;51.476;7.552;2023-04-24T00:10:00;5.07;;;3.38;;
68940;SDS011;55982;51.476;7.552;2023-04-24T00:12:26;3.50;;;2.22;;
68940;SDS011;55982;51.476;7.552;2023-04-24T00:14:52;3.22;;;1.90;;
68940;SDS011;55982;51.476;7.552;2023-04-24T00:17:17;3.35;;;1.70;;
68940;SDS011;55982;51.476;7.552;2023-04-24T00:19:46;2.33;;;1.40;;
68940;SDS011;55982;51.476;7.552;2023-04-24T00:22:12;2.83;;;2.22;;
68940;SDS011;55982;51.476;7.552;2023-04-24T00:24:38;4.75;;;3.13;;
68940;SDS011;55982;51.476;7.552;2023-04-24T00:27:04;7.60;;;4.80;;
68940;SDS011;55982;51.476;7.552;2023-04-24T00:29:30;7.18;;;4.35;;
68940;SDS011;55982;51.476;7.552;2023-04-24T00:31:55;4.43;;;3.53;;
68940;SDS011;55982;51.476;7.552;2023-04-24T00:34:20;4.32;;;2.75;;
68940;SDS011;55982;51.476;7.552;2023-04-24T00:36:46;2.05;;;1.80;;
68940;SDS011;55982;51.476;7.552;2023-04-24T00:39:11;2.72;;;1.80;;
68940;SDS011;55982;51.476;7.552;2023-04-24T00:41:37;1.80;;;1.20;;
68940;SDS011;55982;51.476;7.552;2023-04-24T00:44:02;1.30;;;1.20;;
68940;SDS011;55982;51.476;7.552;2023-04-24T00:46:27;2.45;;;1.42;;
68940;SDS011;55982;51.476;7.552;2023-04-24T00:48:53;1.25;;;1.00;;
68940;SDS011;55982;51.476;7.552;2023-04-24T00:51:19;1.63;;;1.10;;
68940;SDS011;55982;51.476;7.552;2023-04-24T00:53:45;2.78;;;1.33;;
68940;SDS011;55982;51.476;7.552;2023-04-24T00:56:11;1.83;;;1.23;;
68940;SDS011;55982;51.476;7.552;2023-04-24T00:58:36;1.65;;;1.05;;
68940;SDS011;55982;51.476;7.552;2023-04-24T01:01:02;2.60;;;1.52;;
68940;SDS011;55982;51.476;7.552;2023-04-24T01:03:31;1.63;;;1.05;;
68940;SDS011;55982;51.476;7.552;2023-04-24T01:05:58;1.65;;;1.42;;
68940;SDS011;55982;51.476;7.552;2023-04-24T01:08:24;1.92;;;1.30;;
68940;SDS011;55982;51.476;7.552;2023-04-24T01:10:51;1.75;;;1.50;;
68940;SDS011;55982;51.476;7.552;2023-04-24T01:13:18;1.73;;;1.13;;
68940;SDS011;55982;51.476;7.552;2023-04-24T01:15:44;4.43;;;1.60;;
68940;SDS011;55982;51.476;7.552;2023-04-24T01:18:10;3.08;;;1.80;;
68940;SDS011;55982;51.476;7.552;2023-04-24T01:20:35;1.65;;;1.30;;
68940;SDS011;55982;51.476;7.552;2023-04-24T01:23:04;2.65;;;1.73;;
68940;SDS011;55982;51.476;7.552;2023-04-24T01:25:31;1.92;;;1.45;;
68940;SDS011;55982;51.476;7.552;2023-04-24T01:27:57;2.40;;;1.60;;
68940;SDS011;55982;51.476;7.552;2023-04-24T01:30:22;2.33;;;1.33;;
68940;SDS011;55982;51.476;7.552;2023-04-24T01:32:49;2.08;;;1.75;;
68940;SDS011;55982;51.476;7.552;2023-04-24T01:35:16;2.08;;;1.27;;
68940;SDS011;55982;51.476;7.552;2023-04-24T01:37:42;2.40;;;1.42;;
68940;SDS011;55982;51.476;7.552;2023-04-24T01:40:07;1.52;;;1.20;;
68940;SDS011;55982;51.476;7.552;2023-04-24T01:42:34;1.58;;;1.48;;
68940;SDS011;55982;51.476;7.552;2023-04-24T01:44:59;3.15;;;1.50;;
68940;SDS011;55982;51.476;7.552;2023-04-24T01:47:27;2.55;;;1.55;;
68940;SDS011;55982;51.476;7.552;2023-04-24T01:49:53;2.65;;;1.63;;
68940;SDS011;55982;51.476;7.552;2023-04-24T01:52:18;3.85;;;2.00;;
68940;SDS011;55982;51.476;7.552;2023-04-24T01:54:44;2.17;;;1.70;;
68940;SDS011;55982;51.476;7.552;2023-04-24T01:57:09;3.42;;;1.80;;
68940;SDS011;55982;51.476;7.552;2023-04-24T01:59:35;2.05;;;1.67;;
68940;SDS011;55982;51.476;7.552;2023-04-24T02:02:01;3.10;;;2.08;;
68940;SDS011;55982;51.476;7.552;2023-04-24T02:04:27;3.00;;;2.10;;
68940;SDS011;55982;51.476;7.552;2023-04-24T02:06:53;3.28;;;2.17;;
68940;SDS011;55982;51.476;7.552;2023-04-24T02:09:18;2.15;;;1.95;;
68940;SDS011;55982;51.476;7.552;2023-04-24T02:11:44;3.28;;;2.20;;
68940;SDS011;55982;51.476;7.552;2023-04-24T02:14:09;3.08;;;2.22;;
68940;SDS011;55982;51.476;7.552;2023-04-24T02:16:34;2.58;;;2.35;;
68940;SDS011;55982;51.476;7.552;2023-04-24T02:19:00;3.30;;;2.60;;
68940;SDS011;55982;51.476;7.552;2023-04-24T02:21:26;4.00;;;2.80;;
68940;SDS011;55982;51.476;7.552;2023-04-24T02:23:52;5.05;;;3.17;;
68940;SDS011;55982;51.476;7.552;2023-04-24T02:26:18;5.20;;;3.33;;
68940;SDS011;55982;51.476;7.552;2023-04-24T02:28:43;5.13;;;3.50;;
68940;SDS011;55982;51.476;7.552;2023-04-24T02:31:09;7.13;;;2.65;;
68940;SDS011;55982;51.476;7.552;2023-04-24T02:33:34;4.47;;;3.00;;
68940;SDS011;55982;51.476;7.552;2023-04-24T02:36:00;3.83;;;3.10;;
68940;SDS011;55982;51.476;7.552;2023-04-24T02:38:26;5.60;;;3.33;;
68940;SDS011;55982;51.476;7.552;2023-04-24T02:40:52;4.15;;;3.05;;
68940;SDS011;55982;51.476;7.552;2023-04-24T02:43:17;7.53;;;2.95;;
68940;SDS011;55982;51.476;7.552;2023-04-24T02:45:43;4.15;;;3.00;;
68940;SDS011;55982;51.476;7.552;2023-04-24T02:48:08;3.25;;;2.47;;
68940;SDS011;55982;51.476;7.552;2023-04-24T02:50:33;7.07;;;3.20;;
68940;SDS011;55982;51.476;7.552;2023-04-24T02:52:59;6.68;;;3.40;;
68940;SDS011;55982;51.476;7.552;2023-04-24T02:55:24;4.85;;;3.50;;
68940;SDS011;55982;51.476;7.552;2023-04-24T02:57:50;7.93;;;3.70;;
68940;SDS011;55982;51.476;7.552;2023-04-24T03:00:15;6.32;;;3.90;;
68940;SDS011;55982;51.476;7.552;2023-04-24T03:02:41;6.07;;;4.28;;
68940;SDS011;55982;51.476;7.552;2023-04-24T03:05:07;7.78;;;4.93;;
68940;SDS011;55982;51.476;7.552;2023-04-24T03:07:32;5.90;;;4.00;;
68940;SDS011;55982;51.476;7.552;2023-04-24T03:09:58;7.30;;;4.40;;
68940;SDS011;55982;51.476;7.552;2023-04-24T03:12:24;8.05;;;5.22;;
68940;SDS011;55982;51.476;7.552;2023-04-24T03:14:49;11.75;;;7.07;;
68940;SDS011;55982;51.476;7.552;2023-04-24T03:17:15;10.32;;;7.03;;
68940;SDS011;55982;51.476;7.552;2023-04-24T03:19:40;14.60;;;9.07;;
68940;SDS011;55982;51.476;7.552;2023-04-24T03:22:05;16.48;;;9.60;;
68940;SDS011;55982;51.476;7.552;2023-04-24T03:24:31;15.07;;;9.60;;
68940;SDS011;55982;51.476;7.552;2023-04-24T03:26:56;16.50;;;9.80;;
68940;SDS011;55982;51.476;7.552;2023-04-24T03:29:22;16.65;;;9.85;;
68940;SDS011;55982;51.476;7.552;2023-04-24T03:31:47;14.35;;;10.20;;
68940;SDS011;55982;51.476;7.552;2023-04-24T03:34:13;16.80;;;10.32;;
68940;SDS011;55982;51.476;7.552;2023-04-24T03:36:38;16.02;;;10.07;;
68940;SDS011;55982;51.476;7.552;2023-04-24T03:39:03;17.88;;;9.80;;
68940;SDS011;55982;51.476;7.552;2023-04-24T03:41:29;15.93;;;10.45;;
68940;SDS011;55982;51.476;7.552;2023-04-24T03:43:55;19.60;;;11.80;;
68940;SDS011;55982;51.476;7.552;2023-04-24T03:46:20;22.10;;;12.30;;
68940;SDS011;55982;51.476;7.552;2023-04-24T03:48:46;21.15;;;10.68;;
68940;SDS011;55982;51.476;7.552;2023-04-24T03:51:11;19.25;;;11.05;;
68940;SDS011;55982;51.476;7.552;2023-04-24T03:53:37;17.80;;;11.30;;
68940;SDS011;55982;51.476;7.552;2023-04-24T03:56:02;20.63;;;11.83;;
68940;SDS011;55982;51.476;7.552;2023-04-24T03:58:27;20.80;;;12.05;;
68940;SDS011;55982;51.476;7.552;2023-04-24T04:00:53;23.15;;;12.27;;
68940;SDS011;55982;51.476;7.552;2023-04-24T04:03:18;21.73;;;12.70;;
68940;SDS011;55982;51.476;7.552;2023-04-24T04:05:43;24.80;;;12.93;;
68940;SDS011;55982;51.476;7.552;2023-04-24T04:08:09;19.67;;;12.27;;
68940;SDS011;55982;51.476;7.552;2023-04-24T04:10:34;22.17;;;12.15;;
68940;SDS011;55982;51.476;7.552;2023-04-24T04:12:59;21.33;;;12.85;;
68940;SDS011;55982;51.476;7.552;2023-04-24T04:15:25;20.67;;;12.80;;
68940;SDS011;55982;51.476;7.552;2023-04-24T04:17:50;23.15;;;12.60;;
68940;SDS011;55982;51.476;7.552;2023-04-24T04:20:16;21.92;;;11.75;;
68940;SDS011;55982;51.476;7.552;2023-04-24T04:22:41;21.73;;;12.82;;
68940;SDS011;55982;51.476;7.552;2023-04-24T04:25:06;21.73;;;12.07;;
68940;SDS011;55982;51.476;7.552;2023-04-24T04:27:33;24.15;;;12.18;;
68940;SDS011;55982;51.476;7.552;2023-04-24T04:29:59;27.02;;;13.32;;
68940;SDS011;55982;51.476;7.552;2023-04-24T04:32:30;31.30;;;14.60;;
68940;SDS011;55982;51.476;7.552;2023-04-24T04:34:58;35.30;;;14.70;;
68940;SDS011;55982;51.476;7.552;2023-04-24T04:37:27;28.85;;;15.10;;
68940;SDS011;55982;51.476;7.552;2023-04-24T04:39:58;24.70;;;14.20;;
68940;SDS011;55982;51.476;7.552;2023-04-24T04:42:24;27.58;;;15.45;;
68940;SDS011;55982;51.476;7.552;2023-04-24T04:44:50;22.90;;;13.55;;
68940;SDS011;55982;51.476;7.552;2023-04-24T04:47:16;29.23;;;14.48;;
68940;SDS011;55982;51.476;7.552;2023-04-24T04:49:42;22.08;;;13.32;;
68940;SDS011;55982;51.476;7.552;2023-04-24T04:52:08;23.38;;;13.70;;
68940;SDS011;55982;51.476;7.552;2023-04-24T04:54:33;20.60;;;12.75;;
68940;SDS011;55982;51.476;7.552;2023-04-24T04:56:59;22.35;;;13.35;;
68940;SDS011;55982;51.476;7.552;2023-04-24T04:59:25;24.35;;;13.25;;
68940;SDS011;55982;51.476;7.552;2023-04-24T05:01:51;23.00;;;15.30;;
68940;SDS011;55982;51.476;7.552;2023-04-24T05:04:16;24.95;;;14.40;;
68940;SDS011;55982;51.476;7.552;2023-04-24T05:06:41;25.40;;;14.77;;
68940;SDS011;55982;51.476;7.552;2023-04-24T05:09:07;22.85;;;14.27;;
68940;SDS011;55982;51.476;7.552;2023-04-24T05:11:32;26.80;;;14.98;;
68940;SDS011;55982;51.476;7.552;2023-04-24T05:13:58;25.58;;;14.48;;
68940;SDS011;55982;51.476;7.552;2023-04-24T05:16:23;25.83;;;15.52;;
68940;SDS011;55982;51.476;7.552;2023-04-24T05:18:48;27.00;;;15.02;;
68940;SDS011;55982;51.476;7.552;2023-04-24T05:21:14;26.20;;;14.70;;
68940;SDS011;55982;51.476;7.552;2023-04-24T05:23:39;25.20;;;14.98;;
68940;SDS011;55982;51.476;7.552;2023-04-24T05:26:04;27.10;;;15.20;;
68940;SDS011;55982;51.476;7.552;2023-04-24T05:28:30;26.88;;;15.43;;
68940;SDS011;55982;51.476;7.552;2023-04-24T05:30:55;24.42;;;13.18;;
68940;SDS011;55982;51.476;7.552;2023-04-24T05:33:21;25.80;;;13.60;;
68940;SDS011;55982;51.476;7.552;2023-04-24T05:35:47;20.42;;;12.93;;
68940;SDS011;55982;51.476;7.552;2023-04-24T05:38:13;17.92;;;12.13;;
68940;SDS011;55982;51.476;7.552;2023-04-24T05:40:38;21.00;;;11.93;;
68940;SDS011;55982;51.476;7.552;2023-04-24T05:43:04;17.65;;;11.93;;
68940;SDS011;55982;51.476;7.552;2023-04-24T05:45:30;18.95;;;10.95;;
68940;SDS011;55982;51.476;7.552;2023-04-24T05:47:55;16.02;;;10.73;;
68940;SDS011;55982;51.476;7.552;2023-04-24T05:50:21;17.95;;;10.70;;
68940;SDS011;55982;51.476;7.552;2023-04-24T05:52:46;21.65;;;11.50;;
68940;SDS011;55982;51.476;7.552;2023-04-24T05:55:11;19.13;;;10.82;;
68940;SDS011;55982;51.476;7.552;2023-04-24T05:57:37;18.25;;;11.07;;
68940;SDS011;55982;51.476;7.552;2023-04-24T06:00:03;19.05;;;11.63;;
68940;SDS011;55982;51.476;7.552;2023-04-24T06:02:29;14.75;;;9.82;;
68940;SDS011;55982;51.476;7.552;2023-04-24T06:04:57;18.73;;;10.85;;
68940;SDS011;55982;51.476;7.552;2023-04-24T06:07:25;17.63;;;10.43;;
68940;SDS011;55982;51.476;7.552;2023-04-24T06:09:51;18.15;;;10.77;;
68940;SDS011;55982;51.476;7.552;2023-04-24T06:12:17;20.40;;;12.10;;
68940;SDS011;55982;51.476;7.552;2023-04-24T06:14:42;19.60;;;12.07;;
68940;SDS011;55982;51.476;7.552;2023-04-24T06:17:08;18.10;;;11.65;;
68940;SDS011;55982;51.476;7.552;2023-04-24T06:19:33;17.73;;;11.32;;
68940;SDS011;55982;51.476;7.552;2023-04-24T06:21:59;22.63;;;11.98;;
68940;SDS011;55982;51.476;7.552;2023-04-24T06:24:27;20.15;;;10.82;;
68940;SDS011;55982;51.476;7.552;2023-04-24T06:26:53;20.63;;;11.45;;
68940;SDS011;55982;51.476;7.552;2023-04-24T06:29:19;20.38;;;11.23;;
68940;SDS011;55982;51.476;7.552;2023-04-24T06:31:44;17.13;;;11.50;;
68940;SDS011;55982;51.476;7.552;2023-04-24T06:34:10;16.45;;;10.40;;
68940;SDS011;55982;51.476;7.552;2023-04-24T06:36:35;16.20;;;8.88;;
68940;SDS011;55982;51.476;7.552;2023-04-24T06:39:01;14.95;;;10.07;;
68940;SDS011;55982;51.476;7.552;2023-04-24T06:41:27;15.60;;;9.25;;
68940;SDS011;55982;51.476;7.552;2023-04-24T06:43:54;12.00;;;8.18;;
68940;SDS011;55982;51.476;7.552;2023-04-24T06:46:19;13.45;;;8.13;;
68940;SDS011;55982;51.476;7.552;2023-04-24T06:48:47;12.98;;;7.78;;
68940;SDS011;55982;51.476;7.552;2023-04-24T06:51:12;8.98;;;6.55;;
68940;SDS011;55982;51.476;7.552;2023-04-24T06:53:37;10.60;;;6.63;;
68940;SDS011;55982;51.476;7.552;2023-04-24T06:56:03;10.35;;;6.05;;
68940;SDS011;55982;51.476;7.552;2023-04-24T06:58:29;8.85;;;6.00;;
68940;SDS011;55982;51.476;7.552;2023-04-24T07:00:55;10.73;;;6.78;;
68940;SDS011;55982;51.476;7.552;2023-04-24T07:03:20;9.23;;;6.70;;
68940;SDS011;55982;51.476;7.552;2023-04-24T07:05:46;10.25;;;6.82;;
68940;SDS011;55982;51.476;7.552;2023-04-24T07:08:12;9.90;;;6.95;;
68940;SDS011;55982;51.476;7.552;2023-04-24T07:10:38;11.02;;;7.07;;
68940;SDS011;55982;51.476;7.552;2023-04-24T07:13:04;11.40;;;7.43;;
68940;SDS011;55982;51.476;7.552;2023-04-24T07:15:29;11.73;;;7.72;;
68940;SDS011;55982;51.476;7.552;2023-04-24T07:17:55;11.68;;;8.25;;
68940;SDS011;55982;51.476;7.552;2023-04-24T07:20:21;11.98;;;8.25;;
68940;SDS011;55982;51.476;7.552;2023-04-24T07:22:46;15.20;;;10.38;;
68940;SDS011;55982;51.476;7.552;2023-04-24T07:25:13;17.40;;;10.70;;
68940;SDS011;55982;51.476;7.552;2023-04-24T07:27:38;18.23;;;13.27;;
68940;SDS011;55982;51.476;7.552;2023-04-24T07:30:04;21.50;;;13.63;;
68940;SDS011;55982;51.476;7.552;2023-04-24T07:32:30;15.38;;;11.15;;
68940;SDS011;55982;51.476;7.552;2023-04-24T07:34:55;18.48;;;11.63;;
68940;SDS011;55982;51.476;7.552;2023-04-24T07:37:21;16.10;;;10.50;;
68940;SDS011;55982;51.476;7.552;2023-04-24T07:39:47;14.13;;;9.88;;
68940;SDS011;55982;51.476;7.552;2023-04-24T07:42:12;14.95;;;9.52;;
68940;SDS011;55982;51.476;7.552;2023-04-24T07:44:38;18.70;;;11.18;;
68940;SDS011;55982;51.476;7.552;2023-04-24T07:47:03;16.52;;;10.88;;
68940;SDS011;55982;51.476;7.552;2023-04-24T07:49:28;13.98;;;9.18;;
68940;SDS011;55982;51.476;7.552;2023-04-24T07:51:54;11.82;;;8.40;;
68940;SDS011;55982;51.476;7.552;2023-04-24T07:54:20;13.90;;;8.85;;
68940;SDS011;55982;51.476;7.552;2023-04-24T07:56:45;14.40;;;9.57;;
68940;SDS011;55982;51.476;7.552;2023-04-24T07:59:10;16.30;;;10.13;;
68940;SDS011;55982;51.476;7.552;2023-04-24T08:01:36;13.77;;;9.40;;
68940;SDS011;55982;51.476;7.552;2023-04-24T08:04:01;14.32;;;9.57;;
68940;SDS011;55982;51.476;7.552;2023-04-24T08:06:27;9.32;;;7.22;;
68940;SDS011;55982;51.476;7.552;2023-04-24T08:08:55;8.50;;;6.10;;
68940;SDS011;55982;51.476;7.552;2023-04-24T08:11:21;6.20;;;5.00;;
68940;SDS011;55982;51.476;7.552;2023-04-24T08:13:46;6.90;;;5.60;;
68940;SDS011;55982;51.476;7.552;2023-04-24T08:16:11;8.15;;;5.05;;
68940;SDS011;55982;51.476;7.552;2023-04-24T08:18:37;5.93;;;4.75;;
68940;SDS011;55982;51.476;7.552;2023-04-24T08:21:02;5.78;;;4.65;;
68940;SDS011;55982;51.476;7.552;2023-04-24T08:23:28;4.95;;;4.00;;
68940;SDS011;55982;51.476;7.552;2023-04-24T08:25:54;5.15;;;3.50;;
68940;SDS011;55982;51.476;7.552;2023-04-24T08:28:20;3.05;;;2.30;;
68940;SDS011;55982;51.476;7.552;2023-04-24T08:30:46;3.92;;;2.40;;
68940;SDS011;55982;51.476;7.552;2023-04-24T08:33:12;2.97;;;2.42;;
68940;SDS011;55982;51.476;7.552;2023-04-24T08:35:37;2.53;;;2.33;;
68940;SDS011;55982;51.476;7.552;2023-04-24T08:38:03;3.63;;;2.78;;
68940;SDS011;55982;51.476;7.552;2023-04-24T08:40:29;4.35;;;2.25;;
68940;SDS011;55982;51.476;7.552;2023-04-24T08:42:59;2.53;;;2.25;;
68940;SDS011;55982;51.476;7.552;2023-04-24T08:45:25;2.50;;;2.00;;
68940;SDS011;55982;51.476;7.552;2023-04-24T08:47:52;1.95;;;1.50;;
68940;SDS011;55982;51.476;7.552;2023-04-24T08:50:19;2.05;;;1.48;;
68940;SDS011;55982;51.476;7.552;2023-04-24T08:52:46;1.55;;;1.27;;
68940;SDS011;55982;51.476;7.552;2023-04-24T08:55:12;2.47;;;1.35;;
68940;SDS011;55982;51.476;7.552;2023-04-24T08:57:39;1.23;;;1.10;;
68940;SDS011;55982;51.476;7.552;2023-04-24T09:00:05;0.80;;;0.70;;
68940;SDS011;55982;51.476;7.552;2023-04-24T09:02:31;0.95;;;0.68;;
68940;SDS011;55982;51.476;7.552;2023-04-24T09:04:59;0.60;;;0.60;;
68940;SDS011;55982;51.476;7.552;2023-04-24T09:07:25;1.38;;;0.80;;
68940;SDS011;55982;51.476;7.552;2023-04-24T09:09:52;2.42;;;0.75;;
68940;SDS011;55982;51.476;7.552;2023-04-24T09:12:19;1.20;;;0.70;;
68940;SDS011;55982;51.476;7.552;2023-04-24T09:14:44;1.42;;;0.80;;
68940;SDS011;55982;51.476;7.552;2023-04-24T09:17:10;1.98;;;0.80;;
68940;SDS011;55982;51.476;7.552;2023-04-24T09:19:36;0.60;;;0.60;;
68940;SDS011;55982;51.476;7.552;2023-04-24T09:22:05;0.93;;;0.77;;
68940;SDS011;55982;51.476;7.552;2023-04-24T09:24:33;1.15;;;0.80;;
68940;SDS011;55982;51.476;7.552;2023-04-24T09:27:00;1.45;;;0.90;;
68940;SDS011;55982;51.476;7.552;2023-04-24T09:29:29;1.50;;;1.00;;
68940;SDS011;55982;51.476;7.552;2023-04-24T09:31:55;1.73;;;1.23;;
68940;SDS011;55982;51.476;7.552;2023-04-24T09:34:21;8.05;;;1.88;;
68940;SDS011;55982;51.476;7.552;2023-04-24T09:36:48;2.15;;;1.33;;
68940;SDS011;55982;51.476;7.552;2023-04-24T09:39:15;2.65;;;2.15;;
68940;SDS011;55982;51.476;7.552;2023-04-24T09:41:44;2.47;;;2.28;;
68940;SDS011;55982;51.476;7.552;2023-04-24T09:44:14;3.50;;;2.67;;
68940;SDS011;55982;51.476;7.552;2023-04-24T09:46:51;2.53;;;2.20;;
68940;SDS011;55982;51.476;7.552;2023-04-24T09:49:28;3.28;;;2.60;;
68940;SDS011;55982;51.476;7.552;2023-04-24T09:52:07;4.85;;;2.72;;
68940;SDS011;55982;51.476;7.552;2023-04-24T09:54:34;3.65;;;2.85;;
68940;SDS011;55982;51.476;7.552;2023-04-24T09:57:01;4.03;;;2.75;;
68940;SDS011;55982;51.476;7.552;2023-04-24T09:59:27;4.93;;;3.40;;
68940;SDS011;55982;51.476;7.552;2023-04-24T10:01:52;4.43;;;3.08;;
68940;SDS011;55982;51.476;7.552;2023-04-24T10:04:18;4.43;;;3.47;;
68940;SDS011;55982;51.476;7.552;2023-04-24T10:06:45;4.75;;;3.67;;
68940;SDS011;55982;51.476;7.552;2023-04-24T10:09:12;7.65;;;3.08;;
68940;SDS011;55982;51.476;7.552;2023-04-24T10:11:41;4.82;;;3.20;;
68940;SDS011;55982;51.476;7.552;2023-04-24T10:14:09;4.68;;;3.10;;
68940;SDS011;55982;51.476;7.552;2023-04-24T10:16:37;5.13;;;2.90;;
68940;SDS011;55982;51.476;7.552;2023-04-24T10:19:04;2.63;;;2.10;;
68940;SDS011;55982;51.476;7.552;2023-04-24T10:21:29;2.78;;;2.38;;
68940;SDS011;55982;51.476;7.552;2023-04-24T10:23:55;2.78;;;2.50;;
68940;SDS011;55982;51.476;7.552;2023-04-24T10:26:21;4.47;;;2.80;;
68940;SDS011;55982;51.476;7.552;2023-04-24T10:28:47;4.72;;;2.78;;
68940;SDS011;55982;51.476;7.552;2023-04-24T10:31:13;7.22;;;3.33;;
68940;SDS011;55982;51.476;7.552;2023-04-24T10:33:42;4.55;;;3.38;;
68940;SDS011;55982;51.476;7.552;2023-04-24T10:36:10;5.07;;;3.42;;
68940;SDS011;55982;51.476;7.552;2023-04-24T10:38:38;7.95;;;3.58;;
68940;SDS011;55982;51.476;7.552;2023-04-24T10:41:10;9.55;;;4.28;;
68940;SDS011;55982;51.476;7.552;2023-04-24T10:43:41;8.68;;;5.15;;
68940;SDS011;55982;51.476;7.552;2023-04-24T10:46:07;9.48;;;4.28;;
68940;SDS011;55982;51.476;7.552;2023-04-24T10:48:35;6.20;;;3.85;;
68940;SDS011;55982;51.476;7.552;2023-04-24T10:51:10;5.38;;;3.92;;
68940;SDS011;55982;51.476;7.552;2023-04-24T10:53:36;9.20;;;4.10;;
68940;SDS011;55982;51.476;7.552;2023-04-24T10:56:03;6.15;;;4.10;;
68940;SDS011;55982;51.476;7.552;2023-04-24T10:58:41;6.85;;;4.00;;
68940;SDS011;55982;51.476;7.552;2023-04-24T11:01:24;8.13;;;3.83;;
68940;SDS011;55982;51.476;7.552;2023-04-24T11:03:54;5.30;;;4.07;;
68940;SDS011;55982;51.476;7.552;2023-04-24T11:06:31;6.00;;;4.05;;
68940;SDS011;55982;51.476;7.552;2023-04-24T11:09:04;9.18;;;4.15;;
68940;SDS011;55982;51.476;7.552;2023-04-24T11:11:31;9.80;;;4.63;;
68940;SDS011;55982;51.476;7.552;2023-04-24T11:16:32;10.18;;;5.90;;
68940;SDS011;55982;51.476;7.552;2023-04-24T11:21:45;10.70;;;5.97;;
68940;SDS011;55982;51.476;7.552;2023-04-24T11:27:13;15.77;;;7.30;;
68940;SDS011;55982;51.476;7.552;2023-04-24T11:29:42;13.80;;;7.72;;
68940;SDS011;55982;51.476;7.552;2023-04-24T11:32:30;20.27;;;7.95;;
68940;SDS011;55982;51.476;7.552;2023-04-24T11:35:02;20.13;;;9.27;;
68940;SDS011;55982;51.476;7.552;2023-04-24T11:37:36;22.80;;;9.38;;
68940;SDS011;55982;51.476;7.552;2023-04-24T11:40:04;17.40;;;9.55;;
68940;SDS011;55982;51.476;7.552;2023-04-24T11:42:38;21.67;;;11.52;;
68940;SDS011;55982;51.476;7.552;2023-04-24T11:45:09;16.05;;;8.98;;
68940;SDS011;55982;51.476;7.552;2023-04-24T11:47:39;20.65;;;10.73;;
68940;SDS011;55982;51.476;7.552;2023-04-24T11:50:05;17.88;;;9.50;;
68940;SDS011;55982;51.476;7.552;2023-04-24T11:52:42;18.48;;;10.25;;
68940;SDS011;55982;51.476;7.552;2023-04-24T11:57:50;24.10;;;10.05;;
68940;SDS011;55982;51.476;7.552;2023-04-24T12:00:19;22.98;;;10.75;;
68940;SDS011;55982;51.476;7.552;2023-04-24T12:02:47;21.35;;;11.05;;
68940;SDS011;55982;51.476;7.552;2023-04-24T12:05:21;20.75;;;10.73;;
68940;SDS011;55982;51.476;7.552;2023-04-24T12:07:48;18.20;;;11.07;;
68940;SDS011;55982;51.476;7.552;2023-04-24T12:10:13;19.83;;;9.88;;
68940;SDS011;55982;51.476;7.552;2023-04-24T12:12:39;22.48;;;9.57;;
68940;SDS011;55982;51.476;7.552;2023-04-24T12:15:08;21.30;;;10.05;;
68940;SDS011;55982;51.476;7.552;2023-04-24T12:17:34;21.33;;;9.32;;
68940;SDS011;55982;51.476;7.552;2023-04-24T12:20:05;21.60;;;9.73;;
68940;SDS011;55982;51.476;7.552;2023-04-24T12:25:10;19.42;;;9.10;;
68940;SDS011;55982;51.476;7.552;2023-04-24T12:27:37;19.40;;;7.82;;
68940;SDS011;55982;51.476;7.552;2023-04-24T12:30:03;21.00;;;7.95;;
68940;SDS011;55982;51.476;7.552;2023-04-24T12:32:30;19.00;;;6.68;;
68940;SDS011;55982;51.476;7.552;2023-04-24T12:34:56;17.20;;;7.93;;
68940;SDS011;55982;51.476;7.552;2023-04-24T12:37:23;11.80;;;7.15;;
68940;SDS011;55982;51.476;7.552;2023-04-24T12:40:03;11.25;;;6.40;;
68940;SDS011;55982;51.476;7.552;2023-04-24T12:42:31;14.13;;;6.07;;
68940;SDS011;55982;51.476;7.552;2023-04-24T12:44:58;14.15;;;5.68;;
68940;SDS011;55982;51.476;7.552;2023-04-24T12:47:26;11.85;;;5.50;;
68940;SDS011;55982;51.476;7.552;2023-04-24T12:49:52;11.57;;;5.53;;
68940;SDS011;55982;51.476;7.552;2023-04-24T12:52:18;10.63;;;4.88;;
68940;SDS011;55982;51.476;7.552;2023-04-24T12:54:47;14.95;;;5.35;;
68940;SDS011;55982;51.476;7.552;2023-04-24T12:57:12;14.77;;;5.55;;
68940;SDS011;55982;51.476;7.552;2023-04-24T12:59:38;10.45;;;5.38;;
68940;SDS011;55982;51.476;7.552;2023-04-24T13:02:04;13.32;;;6.35;;
68940;SDS011;55982;51.476;7.552;2023-04-24T13:04:30;9.65;;;5.63;;
68940;SDS011;55982;51.476;7.552;2023-04-24T13:06:55;12.23;;;5.82;;
68940;SDS011;55982;51.476;7.552;2023-04-24T13:09:21;13.00;;;5.22;;
68940;SDS011;55982;51.476;7.552;2023-04-24T13:11:46;12.15;;;5.13;;
68940;SDS011;55982;51.476;7.552;2023-04-24T13:14:12;15.23;;;5.47;;
68940;SDS011;55982;51.476;7.552;2023-04-24T13:16:37;18.20;;;6.10;;
68940;SDS011;55982;51.476;7.552;2023-04-24T13:19:02;57.17;;;28.65;;
68940;SDS011;55982;51.476;7.552;2023-04-24T13:21:28;16.08;;;7.15;;
68940;SDS011;55982;51.476;7.552;2023-04-24T13:23:55;14.15;;;6.28;;
68940;SDS011;55982;51.476;7.552;2023-04-24T13:26:21;14.23;;;4.47;;
68940;SDS011;55982;51.476;7.552;2023-04-24T13:28:46;9.85;;;5.10;;
68940;SDS011;55982;51.476;7.552;2023-04-24T13:31:11;12.95;;;4.60;;
68940;SDS011;55982;51.476;7.552;2023-04-24T13:33:37;8.70;;;4.22;;
68940;SDS011;55982;51.476;7.552;2023-04-24T13:36:02;11.52;;;4.35;;
68940;SDS011;55982;51.476;7.552;2023-04-24T13:38:28;8.15;;;4.10;;
68940;SDS011;55982;51.476;7.552;2023-04-24T13:40:53;7.65;;;4.15;;
68940;SDS011;55982;51.476;7.552;2023-04-24T13:43:19;8.10;;;4.90;;
68940;SDS011;55982;51.476;7.552;2023-04-24T13:45:44;9.30;;;5.82;;
68940;SDS011;55982;51.476;7.552;2023-04-24T13:48:09;8.75;;;4.95;;
68940;SDS011;55982;51.476;7.552;2023-04-24T13:50:35;9.82;;;4.40;;
68940;SDS011;55982;51.476;7.552;2023-04-24T13:53:02;9.20;;;3.85;;
68940;SDS011;55982;51.476;7.552;2023-04-24T13:55:27;7.50;;;4.10;;
68940;SDS011;55982;51.476;7.552;2023-04-24T13:57:52;7.57;;;3.40;;
68940;SDS011;55982;51.476;7.552;2023-04-24T14:00:20;7.78;;;3.42;;
68940;SDS011;55982;51.476;7.552;2023-04-24T14:02:45;7.57;;;3.08;;
68940;SDS011;55982;51.476;7.552;2023-04-24T14:05:12;6.20;;;3.08;;
68940;SDS011;55982;51.476;7.552;2023-04-24T14:07:39;7.68;;;3.30;;
68940;SDS011;55982;51.476;7.552;2023-04-24T14:10:04;7.18;;;2.65;;
68940;SDS011;55982;51.476;7.552;2023-04-24T14:12:30;5.45;;;2.42;;
68940;SDS011;55982;51.476;7.552;2023-04-24T14:14:55;4.47;;;2.60;;
68940;SDS011;55982;51.476;7.552;2023-04-24T14:17:21;3.63;;;2.13;;
68940;SDS011;55982;51.476;7.552;2023-04-24T14:19:46;8.23;;;2.80;;
68940;SDS011;55982;51.476;7.552;2023-04-24T14:22:12;5.00;;;2.03;;
68940;SDS011;55982;51.476;7.552;2023-04-24T14:24:37;4.28;;;2.42;;
68940;SDS011;55982;51.476;7.552;2023-04-24T14:27:02;4.13;;;2.60;;
68940;SDS011;55982;51.476;7.552;2023-04-24T14:29:30;7.93;;;3.75;;
68940;SDS011;55982;51.476;7.552;2023-04-24T14:31:56;17.23;;;9.57;;
68940;SDS011;55982;51.476;7.552;2023-04-24T14:34:21;5.95;;;2.70;;
68940;SDS011;55982;51.476;7.552;2023-04-24T14:36:46;6.07;;;2.47;;
68940;SDS011;55982;51.476;7.552;2023-04-24T14:39:11;4.20;;;1.83;;
68940;SDS011;55982;51.476;7.552;2023-04-24T14:41:37;4.07;;;3.00;;
68940;SDS011;55982;51.476;7.552;2023-04-24T14:44:04;5.20;;;2.10;;
68940;SDS011;55982;51.476;7.552;2023-04-24T14:46:30;3.03;;;1.40;;